sensor_id;sensor_type;location;lat;lon;timestamp;pressure;altitude;pressure_sealevel;temperature;humidity
10115;BME280;5097;43.260;27.812;2023-02-20T00:00:43;99932.25;;;12.56;59.37
10115;BME280;5097;43.260;27.812;2023-02-20T00:03:27;99942.88;;;12.69;57.74
10115;BME280;5097;43.260;27.812;2023-02-20T00:06:12;99955.75;;;12.76;58.48
10115;BME280;5097;43.260;27.812;2023-02-20T00:08:56;99920.22;;;12.51;58.11
10115;BME280;5097;43.260;27.812;2023-02-20T00:11:41;99955.16;;;12.85;58.91
10115;BME280;5097;43.260;27.812;2023-02-20T00:14:25;99944.34;;;12.61;58.56
10115;BME280;5097;43.260;27.812;2023-02-20T00:17:10;99911.56;;;12.34;58.84
10115;BME280;5097;43.260;27.812;2023-02-20T00:19:54;99908.25;;;12.31;58.30
10115;BME280;5097;43.260;27.812;2023-02-20T00:22:38;99948.16;;;12.56;57.98
10115;BME280;5097;43.260;27.812;2023-02-20T00:25:23;99942.66;;;12.60;58.89
10115;BME280;5097;43.260;27.812;2023-02-20T00:28:07;99958.38;;;12.48;58.09
10115;BME280;5097;43.260;27.812;2023-02-20T00:30:51;99910.97;;;12.02;58.05
10115;BME280;5097;43.260;27.812;2023-02-20T00:33:37;99911.03;;;12.15;57.90
10115;BME280;5097;43.260;27.812;2023-02-20T00:36:21;99927.78;;;12.30;57.55
10115;BME280;5097;43.260;27.812;2023-02-20T00:39:05;99912.88;;;12.41;57.36
10115;BME280;5097;43.260;27.812;2023-02-20T00:41:49;99945.25;;;12.32;58.43
10115;BME280;5097;43.260;27.812;2023-02-20T00:44:33;99941.47;;;12.36;57.77
10115;BME280;5097;43.260;27.812;2023-02-20T00:47:17;99947.34;;;12.27;58.62
10115;BME280;5097;43.260;27.812;2023-02-20T00:50:04;99941.66;;;12.19;58.35
10115;BME280;5097;43.260;27.812;2023-02-20T00:52:48;99954.16;;;12.31;57.86
10115;BME280;5097;43.260;27.812;2023-02-20T00:55:32;99925.81;;;12.04;57.80
10115;BME280;5097;43.260;27.812;2023-02-20T00:58:16;99932.41;;;11.97;58.22
10115;BME280;5097;43.260;27.812;2023-02-20T01:01:00;99969.69;;;12.09;59.57
10115;BME280;5097;43.260;27.812;2023-02-20T01:03:45;99978.25;;;11.83;59.14
10115;BME280;5097;43.260;27.812;2023-02-20T01:06:31;99943.44;;;11.61;58.65
10115;BME280;5097;43.260;27.812;2023-02-20T01:09:15;99976.75;;;11.79;59.01
10115;BME280;5097;43.260;27.812;2023-02-20T01:11:59;99948.53;;;11.49;59.87
10115;BME280;5097;43.260;27.812;2023-02-20T01:14:43;99954.31;;;11.56;59.48
10115;BME280;5097;43.260;27.812;2023-02-20T01:17:27;99987.78;;;11.71;58.64
10115;BME280;5097;43.260;27.812;2023-02-20T01:20:11;99981.16;;;11.64;59.09
10115;BME280;5097;43.260;27.812;2023-02-20T01:22:57;99997.22;;;11.76;59.06
10115;BME280;5097;43.260;27.812;2023-02-20T01:25:41;99995.81;;;11.70;59.03
10115;BME280;5097;43.260;27.812;2023-02-20T01:28:25;99995.88;;;11.54;59.54
10115;BME280;5097;43.260;27.812;2023-02-20T01:31:09;99961.38;;;11.11;59.98
10115;BME280;5097;43.260;27.812;2023-02-20T01:33:54;99992.28;;;11.55;59.39
10115;BME280;5097;43.260;27.812;2023-02-20T01:36:43;99969.91;;;11.16;59.94
10115;BME280;5097;43.260;27.812;2023-02-20T01:39:29;99995.00;;;11.39;59.73
10115;BME280;5097;43.260;27.812;2023-02-20T01:42:17;99963.44;;;11.05;59.88
10115;BME280;5097;43.260;27.812;2023-02-20T01:45:27;100003.84;;;11.38;59.95
10115;BME280;5097;43.260;27.812;2023-02-20T01:48:19;99976.34;;;11.26;60.21
10115;BME280;5097;43.260;27.812;2023-02-20T01:51:04;99990.47;;;11.11;60.42
10115;BME280;5097;43.260;27.812;2023-02-20T01:53:48;99986.31;;;11.21;60.77
10115;BME280;5097;43.260;27.812;2023-02-20T01:56:34;99995.22;;;11.20;60.29
10115;BME280;5097;43.260;27.812;2023-02-20T01:59:19;99913.97;;;10.77;60.00
10115;BME280;5097;43.260;27.812;2023-02-20T02:02:05;99991.78;;;11.18;60.47
10115;BME280;5097;43.260;27.812;2023-02-20T02:04:50;99988.41;;;11.16;60.62
10115;BME280;5097;43.260;27.812;2023-02-20T02:07:37;99966.94;;;10.90;60.22
10115;BME280;5097;43.260;27.812;2023-02-20T02:10:25;99992.31;;;11.09;60.26
10115;BME280;5097;43.260;27.812;2023-02-20T02:13:13;99988.75;;;11.10;60.09
10115;BME280;5097;43.260;27.812;2023-02-20T02:16:05;99954.13;;;10.98;61.08
10115;BME280;5097;43.260;27.812;2023-02-20T02:18:55;100008.72;;;10.99;60.63
10115;BME280;5097;43.260;27.812;2023-02-20T02:22:18;99996.78;;;11.08;61.41
10115;BME280;5097;43.260;27.812;2023-02-20T02:25:32;99993.25;;;11.07;60.55
10115;BME280;5097;43.260;27.812;2023-02-20T02:28:43;99967.09;;;11.03;60.14
10115;BME280;5097;43.260;27.812;2023-02-20T02:38:37;100010.09;;;11.06;60.74
10115;BME280;5097;43.260;27.812;2023-02-20T02:41:36;100008.63;;;11.01;60.45
10115;BME280;5097;43.260;27.812;2023-02-20T02:44:29;100023.66;;;10.84;61.27
10115;BME280;5097;43.260;27.812;2023-02-20T02:47:20;100020.56;;;10.92;60.81
10115;BME280;5097;43.260;27.812;2023-02-20T02:50:09;100023.97;;;10.78;60.91
10115;BME280;5097;43.260;27.812;2023-02-20T02:52:56;99961.47;;;10.29;61.44
10115;BME280;5097;43.260;27.812;2023-02-20T02:55:42;100031.84;;;10.80;61.05
10115;BME280;5097;43.260;27.812;2023-02-20T02:58:26;100024.56;;;10.67;62.37
10115;BME280;5097;43.260;27.812;2023-02-20T03:01:11;99942.72;;;10.18;62.01
10115;BME280;5097;43.260;27.812;2023-02-20T03:03:57;100029.09;;;10.81;61.50
10115;BME280;5097;43.260;27.812;2023-02-20T03:06:43;100053.63;;;10.67;61.64
10115;BME280;5097;43.260;27.812;2023-02-20T03:09:30;99984.91;;;10.19;62.04
10115;BME280;5097;43.260;27.812;2023-02-20T03:12:19;100022.81;;;10.34;61.59
10115;BME280;5097;43.260;27.812;2023-02-20T03:15:08;100021.25;;;10.48;61.62
10115;BME280;5097;43.260;27.812;2023-02-20T03:18:17;100057.81;;;10.71;62.32
10115;BME280;5097;43.260;27.812;2023-02-20T03:21:10;100067.13;;;10.79;61.38
10115;BME280;5097;43.260;27.812;2023-02-20T03:23:57;100084.22;;;10.71;61.72
10115;BME280;5097;43.260;27.812;2023-02-20T03:26:43;100087.13;;;10.67;62.36
10115;BME280;5097;43.260;27.812;2023-02-20T03:29:33;100068.28;;;10.41;61.76
10115;BME280;5097;43.260;27.812;2023-02-20T03:32:23;100068.06;;;10.78;61.51
10115;BME280;5097;43.260;27.812;2023-02-20T03:35:27;100070.88;;;10.75;61.34
10115;BME280;5097;43.260;27.812;2023-02-20T03:38:31;100118.94;;;10.81;61.99
10115;BME280;5097;43.260;27.812;2023-02-20T03:41:37;100094.38;;;10.63;61.71
10115;BME280;5097;43.260;27.812;2023-02-20T03:44:44;100108.72;;;10.42;62.71
10115;BME280;5097;43.260;27.812;2023-02-20T03:47:29;100161.50;;;10.59;63.21
10115;BME280;5097;43.260;27.812;2023-02-20T03:50:17;100174.09;;;10.19;65.13
10115;BME280;5097;43.260;27.812;2023-02-20T03:53:03;100131.38;;;9.58;67.53
10115;BME280;5097;43.260;27.812;2023-02-20T03:55:48;100198.53;;;9.51;68.42
10115;BME280;5097;43.260;27.812;2023-02-20T03:58:37;100204.09;;;9.06;70.41
10115;BME280;5097;43.260;27.812;2023-02-20T04:01:26;100228.16;;;8.59;72.80
10115;BME280;5097;43.260;27.812;2023-02-20T04:04:15;100167.09;;;8.29;74.19
10115;BME280;5097;43.260;27.812;2023-02-20T04:07:05;100203.63;;;8.57;73.81
10115;BME280;5097;43.260;27.812;2023-02-20T04:09:51;100208.38;;;8.49;72.64
10115;BME280;5097;43.260;27.812;2023-02-20T04:12:39;100195.03;;;8.53;70.91
10115;BME280;5097;43.260;27.812;2023-02-20T04:15:26;100165.72;;;8.61;70.06
10115;BME280;5097;43.260;27.812;2023-02-20T04:18:15;100200.75;;;8.63;69.98
10115;BME280;5097;43.260;27.812;2023-02-20T04:21:03;100202.19;;;8.70;69.18
10115;BME280;5097;43.260;27.812;2023-02-20T04:24:01;100220.78;;;8.47;68.58
10115;BME280;5097;43.260;27.812;2023-02-20T04:26:46;100229.94;;;8.59;65.20
10115;BME280;5097;43.260;27.812;2023-02-20T04:29:30;100243.53;;;8.48;64.19
10115;BME280;5097;43.260;27.812;2023-02-20T04:32:15;100243.72;;;8.21;63.34
10115;BME280;5097;43.260;27.812;2023-02-20T04:35:00;100245.91;;;8.11;62.08
10115;BME280;5097;43.260;27.812;2023-02-20T04:37:45;100237.44;;;8.25;61.71
10115;BME280;5097;43.260;27.812;2023-02-20T04:40:29;100252.28;;;8.05;62.06
10115;BME280;5097;43.260;27.812;2023-02-20T04:43:13;100215.34;;;7.86;62.31
10115;BME280;5097;43.260;27.812;2023-02-20T04:45:57;100253.25;;;8.03;61.67
10115;BME280;5097;43.260;27.812;2023-02-20T04:48:42;100260.41;;;7.99;61.71
10115;BME280;5097;43.260;27.812;2023-02-20T04:51:28;100255.50;;;7.90;61.78
10115;BME280;5097;43.260;27.812;2023-02-20T04:54:12;100254.97;;;7.82;62.10
10115;BME280;5097;43.260;27.812;2023-02-20T04:56:56;100252.47;;;7.79;61.55
10115;BME280;5097;43.260;27.812;2023-02-20T04:59:40;100229.38;;;7.63;61.89
10115;BME280;5097;43.260;27.812;2023-02-20T05:02:25;100280.47;;;8.02;61.51
10115;BME280;5097;43.260;27.812;2023-02-20T05:05:15;100267.78;;;7.45;62.87
10115;BME280;5097;43.260;27.812;2023-02-20T05:08:03;100292.88;;;7.76;62.49
10115;BME280;5097;43.260;27.812;2023-02-20T05:10:47;100291.44;;;7.69;62.22
10115;BME280;5097;43.260;27.812;2023-02-20T05:13:31;100300.72;;;7.54;63.33
10115;BME280;5097;43.260;27.812;2023-02-20T05:16:15;100264.88;;;7.29;63.51
10115;BME280;5097;43.260;27.812;2023-02-20T05:19:00;100311.78;;;7.40;64.28
10115;BME280;5097;43.260;27.812;2023-02-20T05:21:45;100265.41;;;6.90;64.94
10115;BME280;5097;43.260;27.812;2023-02-20T05:24:49;100287.59;;;7.54;63.71
10115;BME280;5097;43.260;27.812;2023-02-20T05:27:33;100335.06;;;7.26;65.02
10115;BME280;5097;43.260;27.812;2023-02-20T05:30:17;100338.91;;;7.41;64.41
10115;BME280;5097;43.260;27.812;2023-02-20T05:33:01;100339.78;;;7.41;64.52
10115;BME280;5097;43.260;27.812;2023-02-20T05:35:45;100361.25;;;7.52;64.13
10115;BME280;5097;43.260;27.812;2023-02-20T05:38:29;100360.25;;;7.31;65.30
10115;BME280;5097;43.260;27.812;2023-02-20T05:41:15;100362.31;;;7.23;64.95
10115;BME280;5097;43.260;27.812;2023-02-20T05:43:59;100347.84;;;6.86;65.17
10115;BME280;5097;43.260;27.812;2023-02-20T05:46:43;100391.25;;;6.69;66.30
10115;BME280;5097;43.260;27.812;2023-02-20T05:49:27;100399.50;;;6.85;66.06
10115;BME280;5097;43.260;27.812;2023-02-20T05:52:11;100376.34;;;6.71;65.49
10115;BME280;5097;43.260;27.812;2023-02-20T05:54:55;100398.75;;;6.82;65.89
10115;BME280;5097;43.260;27.812;2023-02-20T05:57:41;100410.09;;;7.09;64.42
10115;BME280;5097;43.260;27.812;2023-02-20T06:00:25;100421.69;;;6.77;64.58
10115;BME280;5097;43.260;27.812;2023-02-20T06:03:09;100432.25;;;7.02;64.45
10115;BME280;5097;43.260;27.812;2023-02-20T06:05:53;100436.50;;;6.78;63.82
10115;BME280;5097;43.260;27.812;2023-02-20T06:08:38;100433.38;;;6.66;64.77
10115;BME280;5097;43.260;27.812;2023-02-20T06:11:22;100462.97;;;6.71;64.72
10115;BME280;5097;43.260;27.812;2023-02-20T06:14:07;100465.81;;;6.92;64.31
10115;BME280;5097;43.260;27.812;2023-02-20T06:16:51;100481.06;;;6.81;64.70
10115;BME280;5097;43.260;27.812;2023-02-20T06:19:35;100462.72;;;6.51;64.65
10115;BME280;5097;43.260;27.812;2023-02-20T06:22:19;100451.66;;;6.69;65.07
10115;BME280;5097;43.260;27.812;2023-02-20T06:25:03;100482.75;;;6.53;65.75
10115;BME280;5097;43.260;27.812;2023-02-20T06:27:47;100483.44;;;6.88;65.21
10115;BME280;5097;43.260;27.812;2023-02-20T06:30:33;100481.63;;;6.34;66.52
10115;BME280;5097;43.260;27.812;2023-02-20T06:33:17;100501.19;;;6.52;66.06
10115;BME280;5097;43.260;27.812;2023-02-20T06:36:01;100498.13;;;6.37;66.80
10115;BME280;5097;43.260;27.812;2023-02-20T06:38:44;100502.25;;;6.16;66.88
10115;BME280;5097;43.260;27.812;2023-02-20T06:41:28;100514.78;;;6.05;66.97
10115;BME280;5097;43.260;27.812;2023-02-20T06:44:12;100504.44;;;6.00;67.57
10115;BME280;5097;43.260;27.812;2023-02-20T06:46:57;100503.56;;;6.31;66.67
10115;BME280;5097;43.260;27.812;2023-02-20T06:49:42;100515.38;;;6.16;67.44
10115;BME280;5097;43.260;27.812;2023-02-20T06:52:26;100515.84;;;6.29;67.47
10115;BME280;5097;43.260;27.812;2023-02-20T06:55:10;100516.47;;;6.08;67.64
10115;BME280;5097;43.260;27.812;2023-02-20T06:57:54;100491.91;;;5.79;68.09
10115;BME280;5097;43.260;27.812;2023-02-20T07:00:38;100530.44;;;5.75;69.18
10115;BME280;5097;43.260;27.812;2023-02-20T07:03:23;100533.47;;;5.60;69.81
10115;BME280;5097;43.260;27.812;2023-02-20T07:06:07;100541.53;;;5.85;69.79
10115;BME280;5097;43.260;27.812;2023-02-20T07:08:51;100536.94;;;5.93;69.38
10115;BME280;5097;43.260;27.812;2023-02-20T07:11:35;100532.22;;;5.73;70.68
10115;BME280;5097;43.260;27.812;2023-02-20T07:14:19;100536.88;;;5.63;71.18
10115;BME280;5097;43.260;27.812;2023-02-20T07:17:03;100555.69;;;5.45;71.32
10115;BME280;5097;43.260;27.812;2023-02-20T07:19:49;100549.47;;;5.49;71.32
10115;BME280;5097;43.260;27.812;2023-02-20T07:22:33;100552.06;;;5.49;70.39
10115;BME280;5097;43.260;27.812;2023-02-20T07:25:17;100552.53;;;5.32;73.95
10115;BME280;5097;43.260;27.812;2023-02-20T07:28:01;100559.66;;;5.25;74.54
10115;BME280;5097;43.260;27.812;2023-02-20T07:30:45;100558.69;;;5.29;73.00
10115;BME280;5097;43.260;27.812;2023-02-20T07:33:31;100574.69;;;5.17;71.81
10115;BME280;5097;43.260;27.812;2023-02-20T07:36:16;100566.22;;;5.06;73.19
10115;BME280;5097;43.260;27.812;2023-02-20T07:39:02;100564.38;;;5.11;72.67
10115;BME280;5097;43.260;27.812;2023-02-20T07:41:49;100572.72;;;4.89;72.57
10115;BME280;5097;43.260;27.812;2023-02-20T07:44:51;100593.84;;;5.19;72.41
10115;BME280;5097;43.260;27.812;2023-02-20T07:47:35;100583.50;;;5.13;72.12
10115;BME280;5097;43.260;27.812;2023-02-20T07:50:19;100602.56;;;5.19;72.88
10115;BME280;5097;43.260;27.812;2023-02-20T07:53:05;100599.22;;;5.13;73.40
10115;BME280;5097;43.260;27.812;2023-02-20T07:55:48;100620.66;;;5.30;72.70
10115;BME280;5097;43.260;27.812;2023-02-20T07:58:32;100616.56;;;4.78;74.32
10115;BME280;5097;43.260;27.812;2023-02-20T08:01:16;100599.81;;;4.44;75.07
10115;BME280;5097;43.260;27.812;2023-02-20T08:04:01;100638.56;;;4.70;75.10
10115;BME280;5097;43.260;27.812;2023-02-20T08:06:45;100658.00;;;4.57;76.02
10115;BME280;5097;43.260;27.812;2023-02-20T08:09:30;100660.66;;;4.54;76.27
10115;BME280;5097;43.260;27.812;2023-02-20T08:12:14;100642.56;;;4.43;78.39
10115;BME280;5097;43.260;27.812;2023-02-20T08:14:58;100655.84;;;4.32;78.65
10115;BME280;5097;43.260;27.812;2023-02-20T08:17:45;100668.50;;;4.07;80.21
10115;BME280;5097;43.260;27.812;2023-02-20T08:20:29;100641.13;;;3.78;81.42
10115;BME280;5097;43.260;27.812;2023-02-20T08:23:15;100685.28;;;3.95;84.21
10115;BME280;5097;43.260;27.812;2023-02-20T08:26:03;100669.88;;;3.78;84.83
10115;BME280;5097;43.260;27.812;2023-02-20T08:28:47;100694.91;;;3.93;86.82
10115;BME280;5097;43.260;27.812;2023-02-20T08:31:31;100694.75;;;4.02;87.70
10115;BME280;5097;43.260;27.812;2023-02-20T08:34:16;100699.53;;;3.76;87.76
10115;BME280;5097;43.260;27.812;2023-02-20T08:37:00;100673.03;;;3.43;88.48
10115;BME280;5097;43.260;27.812;2023-02-20T08:39:43;100679.09;;;3.46;89.02
10115;BME280;5097;43.260;27.812;2023-02-20T08:42:29;100704.59;;;3.27;88.98
10115;BME280;5097;43.260;27.812;2023-02-20T08:45:13;100694.06;;;3.33;89.50
10115;BME280;5097;43.260;27.812;2023-02-20T08:47:57;100708.63;;;3.51;88.49
10115;BME280;5097;43.260;27.812;2023-02-20T08:50:43;100680.72;;;3.55;89.11
10115;BME280;5097;43.260;27.812;2023-02-20T08:53:28;100703.00;;;3.76;88.81
10115;BME280;5097;43.260;27.812;2023-02-20T08:56:12;100708.94;;;3.88;88.25
10115;BME280;5097;43.260;27.812;2023-02-20T08:58:57;100680.50;;;3.67;87.58
10115;BME280;5097;43.260;27.812;2023-02-20T09:01:43;100705.00;;;3.59;86.36
10115;BME280;5097;43.260;27.812;2023-02-20T09:04:27;100715.34;;;3.66;86.68
10115;BME280;5097;43.260;27.812;2023-02-20T09:07:11;100710.00;;;3.76;86.95
10115;BME280;5097;43.260;27.812;2023-02-20T09:09:55;100709.44;;;4.10;85.72
10115;BME280;5097;43.260;27.812;2023-02-20T09:12:39;100715.00;;;3.91;85.04
10115;BME280;5097;43.260;27.812;2023-02-20T09:15:25;100713.09;;;3.99;85.94
10115;BME280;5097;43.260;27.812;2023-02-20T09:18:13;100749.78;;;3.93;85.23
10115;BME280;5097;43.260;27.812;2023-02-20T09:20:57;100728.53;;;4.15;84.60
10115;BME280;5097;43.260;27.812;2023-02-20T09:23:41;100731.94;;;4.20;83.85
10115;BME280;5097;43.260;27.812;2023-02-20T09:26:25;100751.81;;;4.30;84.73
10115;BME280;5097;43.260;27.812;2023-02-20T09:29:08;100751.69;;;4.38;83.44
10115;BME280;5097;43.260;27.812;2023-02-20T09:31:54;100731.72;;;4.32;82.07
10115;BME280;5097;43.260;27.812;2023-02-20T09:34:38;100745.03;;;4.18;80.83
10115;BME280;5097;43.260;27.812;2023-02-20T09:37:22;100749.59;;;4.06;80.85
10115;BME280;5097;43.260;27.812;2023-02-20T09:40:07;100716.53;;;4.01;78.87
10115;BME280;5097;43.260;27.812;2023-02-20T09:43:01;100743.09;;;4.31;78.04
10115;BME280;5097;43.260;27.812;2023-02-20T09:45:52;100707.34;;;4.30;74.97
10115;BME280;5097;43.260;27.812;2023-02-20T09:51:51;100736.03;;;4.35;74.42
10115;BME280;5097;43.260;27.812;2023-02-20T09:54:38;100743.88;;;4.35;74.37
10115;BME280;5097;43.260;27.812;2023-02-20T09:57:28;100742.88;;;4.42;73.14
10115;BME280;5097;43.260;27.812;2023-02-20T10:00:20;100745.44;;;4.45;73.09
10115;BME280;5097;43.260;27.812;2023-02-20T10:03:17;100754.06;;;4.97;71.43
10115;BME280;5097;43.260;27.812;2023-02-20T10:06:14;100753.34;;;4.42;72.15
10115;BME280;5097;43.260;27.812;2023-02-20T10:08:58;100725.59;;;4.33;72.13
10115;BME280;5097;43.260;27.812;2023-02-20T10:11:58;100705.56;;;4.32;71.29
10115;BME280;5097;43.260;27.812;2023-02-20T10:15:02;100741.56;;;4.66;70.39
10115;BME280;5097;43.260;27.812;2023-02-20T10:17:55;100743.00;;;4.83;70.20
10115;BME280;5097;43.260;27.812;2023-02-20T10:20:51;100750.59;;;4.95;69.91
10115;BME280;5097;43.260;27.812;2023-02-20T10:23:47;100752.13;;;5.07;69.10
10115;BME280;5097;43.260;27.812;2023-02-20T10:26:49;100765.88;;;5.18;68.20
10115;BME280;5097;43.260;27.812;2023-02-20T10:29:36;100754.31;;;5.27;68.58
10115;BME280;5097;43.260;27.812;2023-02-20T10:32:24;100753.50;;;5.66;67.77
10115;BME280;5097;43.260;27.812;2023-02-20T10:35:14;100744.09;;;5.56;67.59
10115;BME280;5097;43.260;27.812;2023-02-20T10:38:04;100706.34;;;5.64;65.88
10115;BME280;5097;43.260;27.812;2023-02-20T10:40:58;100743.88;;;6.06;66.34
10115;BME280;5097;43.260;27.812;2023-02-20T10:43:47;100745.91;;;5.91;65.50
10115;BME280;5097;43.260;27.812;2023-02-20T10:46:37;100725.06;;;5.85;65.36
10115;BME280;5097;43.260;27.812;2023-02-20T10:49:35;100745.66;;;6.03;65.36
10115;BME280;5097;43.260;27.812;2023-02-20T10:52:23;100752.94;;;5.89;67.02
10115;BME280;5097;43.260;27.812;2023-02-20T10:55:18;100757.16;;;5.57;66.63
10115;BME280;5097;43.260;27.812;2023-02-20T10:58:09;100746.22;;;5.77;66.33
10115;BME280;5097;43.260;27.812;2023-02-20T11:00:59;100755.44;;;5.95;65.00
10115;BME280;5097;43.260;27.812;2023-02-20T11:03:47;100753.13;;;5.83;65.49
10115;BME280;5097;43.260;27.812;2023-02-20T11:06:37;100747.91;;;6.17;65.87
10115;BME280;5097;43.260;27.812;2023-02-20T11:09:22;100769.56;;;6.27;65.19
10115;BME280;5097;43.260;27.812;2023-02-20T11:12:07;100756.59;;;6.87;65.73
10115;BME280;5097;43.260;27.812;2023-02-20T11:15:05;100763.72;;;7.15;64.80
10115;BME280;5097;43.260;27.812;2023-02-20T11:17:52;100755.09;;;7.41;61.18
10115;BME280;5097;43.260;27.812;2023-02-20T11:20:41;100748.84;;;8.00;61.99
10115;BME280;5097;43.260;27.812;2023-02-20T11:23:39;100688.03;;;7.83;59.11
10115;BME280;5097;43.260;27.812;2023-02-20T11:26:28;100750.53;;;8.30;58.99
10115;BME280;5097;43.260;27.812;2023-02-20T11:29:15;100745.75;;;8.14;59.95
10115;BME280;5097;43.260;27.812;2023-02-20T11:32:21;100745.75;;;8.14;59.45
10115;BME280;5097;43.260;27.812;2023-02-20T11:35:21;100754.13;;;8.54;59.90
10115;BME280;5097;43.260;27.812;2023-02-20T11:38:35;100751.88;;;8.68;57.34
10115;BME280;5097;43.260;27.812;2023-02-20T11:41:25;100748.50;;;8.38;58.04
10115;BME280;5097;43.260;27.812;2023-02-20T11:44:28;100765.25;;;8.62;58.33
10115;BME280;5097;43.260;27.812;2023-02-20T11:47:23;100768.38;;;8.74;58.17
10115;BME280;5097;43.260;27.812;2023-02-20T11:50:12;100752.84;;;8.66;57.17
10115;BME280;5097;43.260;27.812;2023-02-20T11:53:03;100759.19;;;9.09;57.96
10115;BME280;5097;43.260;27.812;2023-02-20T11:56:05;100757.47;;;9.08;57.86
10115;BME280;5097;43.260;27.812;2023-02-20T11:58:49;100754.06;;;8.81;55.65
10115;BME280;5097;43.260;27.812;2023-02-20T12:01:34;100769.34;;;9.20;55.07
10115;BME280;5097;43.260;27.812;2023-02-20T12:04:23;100766.47;;;9.50;54.54
10115;BME280;5097;43.260;27.812;2023-02-20T12:07:24;100767.41;;;9.25;54.28
10115;BME280;5097;43.260;27.812;2023-02-20T12:10:22;100767.25;;;9.52;54.43
10115;BME280;5097;43.260;27.812;2023-02-20T12:13:12;100770.78;;;9.75;52.95
10115;BME280;5097;43.260;27.812;2023-02-20T12:16:02;100772.66;;;9.25;53.94
10115;BME280;5097;43.260;27.812;2023-02-20T12:18:56;100768.06;;;9.06;55.15
10115;BME280;5097;43.260;27.812;2023-02-20T12:21:56;100777.44;;;8.65;53.95
10115;BME280;5097;43.260;27.812;2023-02-20T12:25:03;100774.56;;;8.72;54.43
10115;BME280;5097;43.260;27.812;2023-02-20T12:28:03;100764.50;;;8.84;54.29
10115;BME280;5097;43.260;27.812;2023-02-20T12:31:01;100752.00;;;8.65;54.20
10115;BME280;5097;43.260;27.812;2023-02-20T12:34:03;100765.03;;;8.94;53.19
10115;BME280;5097;43.260;27.812;2023-02-20T12:36:59;100774.94;;;9.11;52.71
10115;BME280;5097;43.260;27.812;2023-02-20T12:39:54;100774.22;;;9.07;53.33
10115;BME280;5097;43.260;27.812;2023-02-20T12:42:47;100739.38;;;8.99;52.69
10115;BME280;5097;43.260;27.812;2023-02-20T12:45:38;100785.72;;;9.04;53.37
10115;BME280;5097;43.260;27.812;2023-02-20T12:48:30;100781.13;;;8.86;54.49
10115;BME280;5097;43.260;27.812;2023-02-20T12:51:26;100798.28;;;8.72;54.87
10115;BME280;5097;43.260;27.812;2023-02-20T12:54:26;100795.03;;;8.64;54.12
10115;BME280;5097;43.260;27.812;2023-02-20T12:57:20;100780.41;;;8.81;53.63
10115;BME280;5097;43.260;27.812;2023-02-20T13:00:19;100791.44;;;8.67;54.02
10115;BME280;5097;43.260;27.812;2023-02-20T13:03:10;100779.38;;;8.60;54.04
10115;BME280;5097;43.260;27.812;2023-02-20T13:05:57;100787.66;;;8.49;53.67
10115;BME280;5097;43.260;27.812;2023-02-20T13:08:53;100794.13;;;8.38;53.69
10115;BME280;5097;43.260;27.812;2023-02-20T13:11:44;100757.59;;;8.56;53.03
10115;BME280;5097;43.260;27.812;2023-02-20T13:14:40;100780.97;;;8.65;53.63
10115;BME280;5097;43.260;27.812;2023-02-20T13:17:35;100789.84;;;8.34;54.27
10115;BME280;5097;43.260;27.812;2023-02-20T13:32:35;100763.38;;;8.91;51.63
10115;BME280;5097;43.260;27.812;2023-02-20T13:35:33;100767.97;;;9.10;53.61
10115;BME280;5097;43.260;27.812;2023-02-20T13:38:19;100769.22;;;8.99;52.60
10115;BME280;5097;43.260;27.812;2023-02-20T13:41:05;100573.16;;;7.83;51.76
10115;BME280;5097;43.260;27.812;2023-02-20T13:43:50;100774.94;;;9.11;52.01
10115;BME280;5097;43.260;27.812;2023-02-20T13:46:54;100764.06;;;8.96;52.34
10115;BME280;5097;43.260;27.812;2023-02-20T13:49:54;100774.69;;;8.68;52.34
10115;BME280;5097;43.260;27.812;2023-02-20T13:52:41;100764.59;;;8.81;52.59
10115;BME280;5097;43.260;27.812;2023-02-20T13:55:26;100770.47;;;8.64;52.71
10115;BME280;5097;43.260;27.812;2023-02-20T13:58:12;100764.28;;;8.38;53.04
10115;BME280;5097;43.260;27.812;2023-02-20T14:00:57;100756.88;;;8.51;53.84
10115;BME280;5097;43.260;27.812;2023-02-20T14:03:41;100738.59;;;8.45;52.31
10115;BME280;5097;43.260;27.812;2023-02-20T14:06:27;100732.94;;;8.32;52.03
10115;BME280;5097;43.260;27.812;2023-02-20T14:09:20;100701.69;;;7.94;52.42
10115;BME280;5097;43.260;27.812;2023-02-20T14:12:07;100742.59;;;8.04;53.15
10115;BME280;5097;43.260;27.812;2023-02-20T14:14:54;100750.59;;;8.01;53.91
10115;BME280;5097;43.260;27.812;2023-02-20T14:17:41;100711.50;;;7.62;52.82
10115;BME280;5097;43.260;27.812;2023-02-20T14:20:32;100754.38;;;7.64;53.08
10115;BME280;5097;43.260;27.812;2023-02-20T14:23:23;100707.03;;;7.36;52.64
10115;BME280;5097;43.260;27.812;2023-02-20T14:26:18;100761.19;;;7.70;52.17
10115;BME280;5097;43.260;27.812;2023-02-20T14:29:18;100752.31;;;7.74;51.80
10115;BME280;5097;43.260;27.812;2023-02-20T14:32:03;100721.44;;;7.52;53.12
10115;BME280;5097;43.260;27.812;2023-02-20T14:34:53;100757.00;;;7.64;52.28
10115;BME280;5097;43.260;27.812;2023-02-20T14:37:45;100737.25;;;7.51;53.27
10115;BME280;5097;43.260;27.812;2023-02-20T14:40:38;100750.41;;;7.51;53.12
10115;BME280;5097;43.260;27.812;2023-02-20T14:43:24;100743.69;;;7.41;53.87
10115;BME280;5097;43.260;27.812;2023-02-20T14:46:19;100731.38;;;7.43;53.72
10115;BME280;5097;43.260;27.812;2023-02-20T14:49:06;100740.50;;;7.59;52.17
10115;BME280;5097;43.260;27.812;2023-02-20T14:51:51;100740.38;;;7.64;51.43
10115;BME280;5097;43.260;27.812;2023-02-20T14:54:36;100735.84;;;7.67;51.88
10115;BME280;5097;43.260;27.812;2023-02-20T14:57:22;100745.69;;;7.62;51.87
10115;BME280;5097;43.260;27.812;2023-02-20T15:00:09;100730.22;;;7.51;51.19
10115;BME280;5097;43.260;27.812;2023-02-20T15:02:54;100749.59;;;7.49;51.70
10115;BME280;5097;43.260;27.812;2023-02-20T15:05:40;100744.56;;;7.41;52.84
10115;BME280;5097;43.260;27.812;2023-02-20T15:08:29;100742.06;;;7.36;51.77
10115;BME280;5097;43.260;27.812;2023-02-20T15:11:14;100736.97;;;7.32;51.22
10115;BME280;5097;43.260;27.812;2023-02-20T15:14:01;100737.19;;;7.24;52.30